Time;durP1;ratioP1;P1;durP2;ratioP2;P2;SDS_P1;SDS_P2;PMS_P1;PMS_P2;Temp;Humidity;BMP_temperature;BMP_pressure;BME280_temperature;BME280_humidity;BME280_pressure;Samples;Min_cycle;Max_cycle;Signal;HPM_P1;HPM_P2
2022/08/10 07:06:02;;;;;;;56.78;30.50;;;;;;;22.26;42.42;97261.44;2098471;27;20562;-65
2022/08/10 07:07:05;;;;;;;21.75;9.73;;;;;;;22.37;42.21;97255.25;2085855;28;20197;-65
2022/08/10 07:08:08;;;;;;;35.75;15.43;;;;;;;22.44;42.08;97264.41;2085863;28;20223;-66
2022/08/10 07:09:13;;;;;;;14.43;5.15;;;;;;;22.55;42.31;97260.88;2083675;28;20188;-66
2022/08/10 07:10:18;;;;;;;15.63;2.65;;;;;;;22.69;41.74;97259.72;2084721;28;20211;-66
2022/08/10 07:11:21;;;;;;;13.15;1.90;;;;;;;22.40;41.39;97267.44;2082316;28;20250;-66
2022/08/10 07:12:24;;;;;;;11.23;1.65;;;;;;;22.40;42.19;97265.66;2081675;28;20231;-66
2022/08/10 07:13:28;;;;;;;16.30;2.20;;;;;;;22.34;42.22;97264.28;2081447;28;20196;-66
2022/08/10 07:38:53;;;;;;;10.20;2.53;;;;;;;23.48;40.02;97263.66;2101323;27;20564;-64
2022/08/10 07:39:55;;;;;;;10.93;2.13;;;;;;;23.90;39.54;97260.81;2095803;28;20191;-65
2022/08/10 07:41:06;;;;;;;3.50;1.63;;;;;;;24.33;39.03;97258.81;2091070;28;20195;-64
2022/08/10 07:42:10;;;;;;;7.43;2.08;;;;;;;24.19;39.11;97262.72;2079188;28;20197;-65
2022/08/10 07:43:13;;;;;;;5.05;1.45;;;;;;;24.50;38.76;97259.06;2079116;28;20648;-64
2022/08/10 07:44:16;;;;;;;3.05;1.60;;;;;;;24.61;38.32;97256.25;2079524;28;20205;-65
2022/08/10 07:45:18;;;;;;;8.18;1.90;;;;;;;24.56;38.33;97262.00;2079568;28;20201;-65
2022/08/10 07:46:25;;;;;;;9.63;1.95;;;;;;;24.62;37.94;97256.13;2083439;28;20220;-65
2022/08/10 08:06:14;;;;;;;7.30;2.55;;;;;;;25.00;37.62;97258.03;2096598;27;21062;-65
2022/08/10 08:07:17;;;;;;;5.22;2.10;;;;;;;24.01;38.60;97269.72;2087884;28;20196;-65
2022/08/10 08:08:22;;;;;;;12.43;2.55;;;;;;;23.57;39.51;97262.84;2087810;28;20188;-65
2022/08/10 08:09:27;;;;;;;8.20;1.80;;;;;;;23.31;40.35;97262.44;2086737;28;20207;-65
2022/08/10 08:10:30;;;;;;;12.73;1.90;;;;;;;22.91;40.71;97264.03;2087626;28;20659;-64
2022/08/10 08:11:32;;;;;;;11.20;1.70;;;;;;;23.15;40.54;97269.09;2087099;28;20410;-64
2022/08/10 08:12:35;;;;;;;18.08;2.53;;;;;;;23.36;39.93;97268.22;2087920;28;20201;-64
2022/08/10 08:13:39;;;;;;;17.88;1.98;;;;;;;22.99;41.02;97271.38;2087452;28;20200;-65
2022/08/10 08:14:42;;;;;;;8.20;1.75;;;;;;;23.39;39.75;97265.31;2087824;28;20666;-65
2022/08/10 08:15:45;;;;;;;6.93;1.90;;;;;;;23.90;39.66;97268.81;2086147;28;20799;-65
2022/08/10 08:35:18;;;;;;;20.52;2.00;;;;;;;24.34;37.36;97264.97;2085189;28;20564;-65
2022/08/10 08:36:21;;;;;;;25.88;2.30;;;;;;;24.51;37.12;97268.78;2073438;28;20225;-65
2022/08/10 08:37:25;;;;;;;10.07;2.30;;;;;;;23.85;38.39;97281.72;2071555;28;20801;-66
2022/08/10 08:38:47;;;;;;;9.35;2.25;;;;;;;23.51;38.37;97271.38;2070734;28;20648;-66
2022/08/10 08:39:49;;;;;;;7.07;1.55;;;;;;;23.79;37.85;97269.78;2070932;28;20206;-64
2022/08/10 08:41:02;;;;;;;23.05;2.92;;;;;;;23.68;38.69;97271.69;2070494;28;20597;-63
2022/08/10 08:42:30;;;;;;;8.90;2.00;;;;;;;24.52;37.98;97265.09;2070992;28;20202;-65
2022/08/10 08:43:47;;;;;;;5.13;1.40;;;;;;;25.25;35.84;97261.91;2070710;28;20209;-64
2022/08/10 08:44:57;;;;;;;25.85;1.80;;;;;;;24.84;36.54;97262.16;2070943;28;20284;-64
2022/08/10 08:46:43;;;;;;;24.20;8.68;;;;;;;25.65;35.67;97262.59;2069919;28;20198;-65
2022/08/10 09:05:46;;;;;;;40.20;3.53;;;;;;;25.95;35.01;97264.13;2103354;27;20549;-65
2022/08/10 09:07:38;;;;;;;13.07;1.75;;;;;;;26.81;33.74;97259.28;2081626;28;20221;-66
2022/08/10 09:09:26;;;;;;;6.65;1.38;;;;;;;27.18;32.48;97252.81;2081929;28;20252;-65
2022/08/10 09:10:51;;;;;;;9.70;1.45;;;;;;;27.45;31.78;97261.72;2083856;28;20566;-65
2022/08/10 09:12:24;;;;;;;2.95;1.17;;;;;;;26.69;32.73;97274.72;2084667;28;20207;-65
2022/08/10 09:13:36;;;;;;;7.90;1.60;;;;;;;26.14;32.87;97263.19;2081403;28;20196;-65
2022/08/10 09:15:07;;;;;;;3.55;1.30;;;;;;;26.42;32.70;97268.47;2085435;28;20200;-65
2022/08/10 09:16:31;;;;;;;4.55;1.30;;;;;;;27.02;31.79;97262.47;2087771;28;20274;-64
2022/08/10 09:18:00;;;;;;;8.60;1.70;;;;;;;26.08;32.97;97259.28;2091238;28;20211;-65
2022/08/10 09:19:30;;;;;;;6.53;1.38;;;;;;;26.04;33.03;97252.53;2087712;28;20204;-66
2022/08/10 09:21:10;;;;;;;2.70;1.27;;;;;;;26.32;32.37;97257.88;2091930;28;20624;-65
2022/08/10 09:22:31;;;;;;;8.40;1.58;;;;;;;27.17;30.92;97260.03;2091041;28;20220;-66
2022/08/10 09:24:03;;;;;;;24.67;2.13;;;;;;;27.21;31.40;97260.53;2091013;28;20691;-65
2022/08/10 09:44:42;;;;;;;10.32;1.38;;;;;;;26.77;31.08;97247.22;2092876;27;21119;-66
2022/08/10 09:46:13;;;;;;;9.50;1.80;;;;;;;27.56;29.97;97237.28;2090309;28;20195;-66
2022/08/10 09:47:52;;;;;;;10.98;1.45;;;;;;;27.90;30.19;97246.31;2073603;28;20196;-66
2022/08/10 09:49:16;;;;;;;4.40;1.17;;;;;;;28.18;29.10;97257.63;2074169;28;20228;-66
2022/08/10 09:50:26;;;;;;;8.75;1.60;;;;;;;28.19;28.83;97245.91;2071873;28;20236;-66
2022/08/10 09:52:20;;;;;;;9.07;1.77;;;;;;;27.67;30.02;97237.00;2074413;28;20604;-66
2022/08/10 09:53:41;;;;;;;11.27;1.80;;;;;;;27.97;29.93;97233.91;2076691;28;20210;-67
2022/08/10 09:54:53;;;;;;;4.05;1.45;;;;;;;28.49;29.26;97241.72;2075841;28;20558;-65
2022/08/10 09:56:06;;;;;;;3.95;1.42;;;;;;;28.78;28.95;97232.31;2076030;28;20690;-65
2022/08/10 09:57:48;;;;;;;3.35;1.40;;;;;;;28.81;27.73;97233.84;2077667;28;20196;-66
2022/08/10 09:59:18;;;;;;;3.47;1.30;;;;;;;28.26;29.14;97229.97;2071050;28;20244;-66
2022/08/10 10:00:46;;;;;;;5.13;1.55;;;;;;;28.33;28.68;97233.66;2071894;28;20233;-65
2022/08/10 10:01:56;;;;;;;5.95;1.48;;;;;;;28.58;28.36;97233.66;2078065;28;20224;-63
2022/08/10 10:03:32;;;;;;;9.63;1.35;;;;;;;28.83;28.01;97235.34;2071784;28;20202;-65
2022/08/10 10:05:05;;;;;;;6.32;1.58;;;;;;;28.35;27.52;97237.00;2072475;28;20245;-65
2022/08/10 10:06:28;;;;;;;9.60;1.60;;;;;;;28.29;27.23;97237.66;2072647;28;20200;-66
2022/08/10 10:07:30;;;;;;;7.72;1.00;;;;;;;28.58;27.48;97237.19;2073737;28;20202;-65
2022/08/10 10:08:50;;;;;;;5.93;1.10;;;;;;;28.55;27.41;97228.63;2076947;28;20204;-65
2022/08/10 10:10:07;;;;;;;2.40;1.20;;;;;;;29.29;26.71;97226.72;2076634;28;20810;-65
2022/08/10 10:11:34;;;;;;;8.73;1.10;;;;;;;28.10;27.36;97223.56;2076916;28;20680;-66
2022/08/10 10:12:38;;;;;;;11.07;1.40;;;;;;;28.64;27.75;97233.00;2091076;28;20374;-64
2022/08/10 10:14:14;;;;;;;6.10;1.50;;;;;;;29.21;26.67;97229.41;2088926;28;20200;-64
2022/08/10 10:37:10;;;;;;;2.88;1.25;;;;;;;29.05;25.70;97207.94;2085804;28;20548;-64
2022/08/10 10:38:14;;;;;;;1.85;1.10;;;;;;;29.87;25.58;97210.31;2079569;28;20215;-65
2022/08/10 10:39:18;;;;;;;3.30;1.35;;;;;;;30.26;24.78;97212.09;2079445;28;20204;-65
2022/08/10 10:40:28;;;;;;;2.28;1.30;;;;;;;30.29;24.78;97209.03;2078361;28;20259;-64
2022/08/10 10:41:39;;;;;;;3.85;1.08;;;;;;;30.18;23.95;97203.25;2073168;28;20610;-65
2022/08/10 10:43:22;;;;;;;4.57;1.10;;;;;;;30.44;24.03;97206.41;2070118;28;20210;-66
2022/08/10 10:44:28;;;;;;;3.58;1.10;;;;;;;30.43;23.94;97206.59;2069529;28;20206;-66
2022/08/10 10:45:43;;;;;;;6.97;1.75;;;;;;;30.23;24.51;97211.63;2071194;28;20197;-66
2022/08/10 10:47:05;;;;;;;7.70;1.33;;;;;;;30.12;24.42;97215.59;2069619;28;20224;-65
2022/08/10 10:48:40;;;;;;;28.90;1.90;;;;;;;29.25;24.90;97198.44;2071308;28;20233;-65
2022/08/10 10:49:53;;;;;;;11.30;1.80;;;;;;;30.00;24.45;97211.63;2069767;28;20752;-65
2022/08/10 10:51:24;;;;;;;11.23;2.25;;;;;;;30.12;24.37;97208.34;2070936;28;20551;-65
2022/08/10 10:52:50;;;;;;;22.25;2.30;;;;;;;30.80;24.46;97209.50;2070899;28;20197;-66
2022/08/10 10:54:07;;;;;;;8.50;1.40;;;;;;;30.07;24.04;97199.97;2071145;28;20549;-66
2022/08/10 10:55:17;;;;;;;3.50;1.00;;;;;;;29.31;25.21;97194.28;2071348;28;20230;-65
2022/08/10 10:56:54;;;;;;;8.35;1.30;;;;;;;30.43;24.80;97207.41;2069226;28;20217;-66
2022/08/10 10:58:03;;;;;;;13.82;1.48;;;;;;;30.92;24.13;97198.09;2071140;28;20198;-65
2022/08/10 10:59:35;;;;;;;6.17;1.10;;;;;;;31.48;23.86;97195.97;2071138;28;20531;-65
2022/08/10 11:01:13;;;;;;;9.25;1.33;;;;;;;31.77;23.58;97203.22;2070315;28;20463;-65
2022/08/10 11:02:58;;;;;;;11.47;1.67;;;;;;;32.22;23.22;97197.69;2071233;28;20680;-65
2022/08/10 11:04:29;;;;;;;6.23;1.27;;;;;;;32.56;23.23;97196.13;2070223;28;20435;-64
2022/08/10 11:06:02;;;;;;;2.80;1.10;;;;;;;32.75;22.63;97191.09;2071318;28;20424;-65
2022/08/10 11:07:22;;;;;;;3.83;1.10;;;;;;;31.91;22.93;97209.59;2070445;28;20443;-64
2022/08/10 11:08:35;;;;;;;14.37;1.73;;;;;;;29.20;25.72;97194.63;2070928;28;20485;-65
2022/08/10 11:09:42;;;;;;;6.13;1.47;;;;;;;30.07;25.03;97194.56;2070707;28;20438;-65
2022/08/10 11:11:15;;;;;;;10.70;1.30;;;;;;;31.15;24.44;97194.50;2070207;28;20428;-64
2022/08/10 11:13:04;;;;;;;4.57;1.03;;;;;;;31.73;24.14;97191.09;2071309;28;20427;-65
2022/08/10 11:14:28;;;;;;;9.93;1.50;;;;;;;31.88;23.17;97188.38;2068826;28;20470;-66
2022/08/10 11:15:33;;;;;;;6.27;1.40;;;;;;;32.22;23.27;97192.28;2070431;28;20519;-66
2022/08/10 11:16:52;;;;;;;4.70;1.30;;;;;;;32.50;23.07;97188.81;2070740;28;20782;-66
2022/08/10 11:18:08;;;;;;;2.73;1.17;;;;;;;32.55;22.77;97195.28;2070666;28;20775;-66
2022/08/10 11:19:29;;;;;;;3.40;1.70;;;;;;;32.36;23.18;97196.78;2070294;28;20427;-66
2022/08/10 11:20:59;;;;;;;5.20;1.50;;;;;;;32.74;22.84;97192.16;2071459;28;20463;-66
2022/08/10 11:22:06;;;;;;;2.13;1.20;;;;;;;32.79;22.52;97190.50;2069746;28;20775;-66
2022/08/10 11:46:29;;;;;;;1.90;1.00;;;;;;;33.61;21.70;97190.81;2099181;27;20559;-66
2022/08/10 11:47:52;;;;;;;7.13;1.30;;;;;;;33.34;21.75;97190.69;2088889;28;20921;-66
2022/08/10 11:49:07;;;;;;;2.30;1.03;;;;;;;33.17;21.78;97189.31;2090120;28;20429;-66
2022/08/10 11:50:27;;;;;;;2.80;2.40;;;;;;;31.11;23.60;97182.44;2092785;28;20435;-66
2022/08/10 11:51:44;;;;;;;5.30;1.40;;;;;;;32.39;22.88;97176.63;2093071;28;20469;-66
2022/08/10 11:52:55;;;;;;;3.87;1.33;;;;;;;32.61;22.46;97187.41;2095250;28;20424;-65
2022/08/10 11:54:18;;;;;;;3.47;1.10;;;;;;;33.37;21.94;97182.16;2089803;28;20425;-66
2022/08/10 11:55:22;;;;;;;2.50;1.37;;;;;;;33.31;21.86;97172.13;2088531;28;21048;-66
2022/08/10 11:56:30;;;;;;;2.60;1.00;;;;;;;33.42;21.58;97178.84;2074624;28;20867;-66
2022/08/10 11:57:33;;;;;;;5.03;1.23;;;;;;;33.69;21.57;97179.78;2078633;28;20487;-66
2022/08/10 12:00:18;;;;;;;2.30;1.30;;;;;;;34.04;21.21;97178.03;2090272;28;20425;-66
2022/08/10 12:01:25;;;;;;;2.17;1.00;;;;;;;34.46;21.23;97182.28;2087206;28;20445;-66
2022/08/10 12:02:47;;;;;;;2.30;0.80;;;;;;;34.76;20.73;97181.03;2080681;28;20415;-66
2022/08/10 12:03:51;;;;;;;4.03;1.63;;;;;;;32.22;22.29;97173.38;2083374;28;20428;-66
2022/08/10 12:05:02;;;;;;;5.73;1.33;;;;;;;33.36;21.53;97175.06;2091428;28;21266;-66
2022/08/10 12:06:08;;;;;;;10.47;1.57;;;;;;;32.00;22.82;97167.09;2091047;28;20465;-65
2022/08/10 12:07:11;;;;;;;16.63;2.03;;;;;;;32.23;22.69;97166.97;2090135;28;20814;-66
2022/08/10 12:08:33;;;;;;;8.30;1.40;;;;;;;31.39;23.16;97171.78;2089986;28;20429;-66
2022/08/10 12:09:56;;;;;;;7.70;1.57;;;;;;;31.64;23.02;97178.75;2091368;28;21051;-66
2022/08/10 12:11:16;;;;;;;2.17;1.30;;;;;;;32.59;22.15;97179.50;2092247;28;20872;-65
2022/08/10 12:12:29;;;;;;;5.67;1.10;;;;;;;31.96;22.97;97174.78;2090777;28;20432;-66
2022/08/10 12:13:40;;;;;;;13.03;1.93;;;;;;;32.99;22.24;97168.16;2088711;28;20417;-66
2022/08/10 12:15:07;;;;;;;9.70;1.50;;;;;;;31.35;23.82;97175.03;2083389;28;20605;-65
2022/08/10 12:16:14;;;;;;;6.73;1.20;;;;;;;32.76;22.59;97157.63;2077911;28;20505;-66
2022/08/10 12:17:27;;;;;;;4.53;1.07;;;;;;;31.94;23.51;97157.91;2083578;28;20429;-66
2022/08/10 12:18:44;;;;;;;8.00;1.40;;;;;;;32.85;22.20;97170.81;2089806;28;20429;-66
2022/08/10 12:20:07;;;;;;;4.03;1.30;;;;;;;32.08;22.75;97161.59;2092174;28;20511;-66
2022/08/10 12:21:19;;;;;;;36.47;11.63;;;;;;;31.63;23.28;97164.44;2099278;28;20451;-66
2022/08/10 12:22:30;;;;;;;7.03;1.70;;;;;;;31.30;23.96;97154.06;2091839;28;20416;-66
2022/08/10 12:23:41;;;;;;;6.77;2.23;;;;;;;32.10;22.60;97156.84;2086829;28;20508;-66
2022/08/10 12:24:55;;;;;;;14.30;2.33;;;;;;;31.70;23.67;97165.34;2087716;28;20980;-67
2022/08/10 12:26:13;;;;;;;19.70;2.37;;;;;;;31.14;23.66;97168.56;2085291;28;20469;-66
2022/08/10 12:27:19;;;;;;;18.07;1.70;;;;;;;31.85;22.95;97167.16;2082695;28;20418;-66
2022/08/10 12:28:28;;;;;;;30.20;2.60;;;;;;;29.75;24.51;97171.34;2084841;28;21026;-65
2022/08/10 12:30:02;;;;;;;14.60;3.43;;;;;;;30.53;24.08;97163.28;2093578;28;20453;-66
2022/08/10 12:31:08;;;;;;;14.47;1.87;;;;;;;31.38;23.69;97162.03;2089682;28;20420;-66
2022/08/10 12:32:18;;;;;;;10.30;2.00;;;;;;;32.31;22.77;97156.00;2093969;28;20416;-66
2022/08/10 12:55:36;;;;;;;8.60;1.97;;;;;;;31.85;23.60;97141.00;2101028;27;20561;-64
2022/08/10 12:56:44;;;;;;;19.17;1.70;;;;;;;31.61;23.85;97139.47;2085987;28;20468;-64
2022/08/10 12:57:51;;;;;;;20.50;2.37;;;;;;;31.99;23.15;97144.66;2084508;28;20433;-65
2022/08/10 12:58:54;;;;;;;12.13;1.80;;;;;;;30.04;25.38;97149.19;2086263;28;20436;-65
2022/08/10 13:00:02;;;;;;;2.53;1.20;;;;;;;29.83;24.90;97144.41;2083960;28;20892;-64
2022/08/10 13:01:06;;;;;;;2.60;1.20;;;;;;;29.17;25.31;97134.81;2084500;28;20436;-64
2022/08/10 13:02:29;;;;;;;9.30;1.20;;;;;;;29.67;25.46;97139.13;2086196;28;20429;-64
2022/08/10 13:03:33;;;;;;;9.27;2.27;;;;;;;31.65;23.81;97139.97;2092976;28;20420;-65
2022/08/10 13:04:58;;;;;;;12.63;1.43;;;;;;;32.30;22.77;97119.22;2080790;28;20429;-64
2022/08/10 13:06:03;;;;;;;10.43;1.37;;;;;;;32.31;23.35;97138.97;2084867;28;20429;-65
2022/08/10 13:07:06;;;;;;;7.50;2.00;;;;;;;33.15;22.58;97131.84;2086366;28;20781;-65
2022/08/10 13:09:29;;;;;;;1.93;1.20;;;;;;;34.42;21.10;97134.94;2085273;28;20430;-64
2022/08/10 13:10:31;;;;;;;6.63;1.30;;;;;;;32.36;22.37;97126.53;2084040;28;20429;-64
2022/08/10 13:11:58;;;;;;;2.70;1.10;;;;;;;30.94;23.21;97122.41;2085440;28;20461;-64
2022/08/10 13:13:23;;;;;;;5.53;1.43;;;;;;;31.02;23.74;97119.63;2082793;28;20449;-64
2022/08/10 13:14:38;;;;;;;2.47;1.30;;;;;;;32.78;22.63;97125.84;2086785;28;21111;-65
2022/08/10 13:15:44;;;;;;;2.33;1.00;;;;;;;33.73;21.91;97117.13;2086593;28;20428;-65
2022/08/10 13:16:55;;;;;;;2.13;1.00;;;;;;;34.24;21.42;97113.88;2085648;28;20925;-64
2022/08/10 13:18:00;;;;;;;4.27;1.00;;;;;;;34.59;21.25;97126.38;2082420;28;20430;-63
2022/08/10 13:19:04;;;;;;;11.57;1.50;;;;;;;33.85;21.15;97123.63;2085206;28;20430;-64
2022/08/10 13:20:27;;;;;;;10.43;1.40;;;;;;;33.66;21.91;97120.66;2089376;28;20429;-64
2022/08/10 13:21:32;;;;;;;10.30;1.60;;;;;;;34.25;20.71;97115.53;2085588;28;20469;-64
2022/08/10 13:22:38;;;;;;;18.77;1.80;;;;;;;32.14;22.33;97114.06;2084207;28;20423;-64
2022/08/10 13:23:51;;;;;;;30.00;2.33;;;;;;;30.99;23.83;97097.59;2083717;28;20425;-63
2022/08/10 13:25:06;;;;;;;56.00;4.00;;;;;;;31.79;23.78;97114.78;2082955;28;20501;-65
2022/08/10 13:26:16;;;;;;;36.70;3.27;;;;;;;32.94;21.90;97119.25;2086126;28;20465;-64
2022/08/10 13:27:25;;;;;;;15.77;2.17;;;;;;;32.77;22.40;97116.06;2088000;28;20483;-64
2022/08/10 13:28:51;;;;;;;6.50;1.50;;;;;;;33.96;21.29;97111.34;2084672;28;20468;-64
2022/08/10 13:30:03;;;;;;;5.37;1.40;;;;;;;34.58;21.31;97111.19;2084156;28;20429;-63
2022/08/10 13:31:10;;;;;;;4.73;1.40;;;;;;;35.00;20.78;97111.75;2085326;28;20426;-64
2022/08/10 13:32:25;;;;;;;9.10;2.10;;;;;;;35.47;20.19;97106.16;2086267;28;20453;-64
2022/08/10 13:33:30;;;;;;;5.37;0.90;;;;;;;33.27;21.33;97108.63;2083333;28;20438;-65
2022/08/10 13:34:54;;;;;;;8.00;1.23;;;;;;;32.31;22.77;97101.97;2084144;28;20433;-64
2022/08/10 13:35:57;;;;;;;12.20;1.30;;;;;;;33.51;21.55;97106.44;2083246;28;20434;-63
2022/08/10 13:37:12;;;;;;;4.53;1.03;;;;;;;34.01;21.06;97100.72;2082819;28;20492;-64
2022/08/10 13:38:20;;;;;;;9.80;1.40;;;;;;;34.06;20.97;97109.06;2085597;28;20434;-64
2022/08/10 13:39:24;;;;;;;4.53;1.30;;;;;;;33.83;21.27;97093.22;2086190;28;20421;-64
2022/08/10 13:40:27;;;;;;;4.13;1.27;;;;;;;34.27;20.74;97099.06;2084366;28;20800;-66
2022/08/10 13:41:38;;;;;;;5.23;1.10;;;;;;;35.04;20.62;97085.03;2083269;28;20453;-65
2022/08/10 14:03:36;;;;;;;4.80;1.10;;;;;;;31.40;23.14;97073.66;2090638;28;20568;-64
2022/08/10 14:04:43;;;;;;;13.07;1.77;;;;;;;30.81;23.48;97081.81;2083633;28;20193;-64
2022/08/10 14:05:51;;;;;;;13.88;1.75;;;;;;;29.85;24.48;97085.03;2084214;28;20190;-65
2022/08/10 14:06:57;;;;;;;7.97;1.15;;;;;;;30.75;23.96;97076.16;2077834;28;20223;-65
2022/08/10 14:08:01;;;;;;;7.30;1.42;;;;;;;31.59;22.99;97074.91;2076062;28;20521;-65
2022/08/10 14:09:07;;;;;;;3.65;1.42;;;;;;;32.72;22.18;97079.63;2076669;28;20198;-65
2022/08/10 14:10:12;;;;;;;3.78;1.20;;;;;;;33.53;21.62;97080.84;2078918;28;20204;-65
2022/08/10 14:11:19;;;;;;;3.57;1.10;;;;;;;34.23;21.06;97071.56;2077618;28;20256;-65
2022/08/10 14:12:25;;;;;;;1.67;1.10;;;;;;;33.67;21.12;97070.88;2078360;28;21102;-65
2022/08/10 14:13:36;;;;;;;6.23;1.50;;;;;;;32.71;21.85;97075.22;2074326;28;20523;-65
2022/08/10 14:14:40;;;;;;;4.80;1.37;;;;;;;31.38;23.08;97073.00;2074760;28;20434;-65
2022/08/10 14:15:47;;;;;;;2.93;1.40;;;;;;;30.64;23.96;97073.06;2076088;28;20426;-65
2022/08/10 14:16:50;;;;;;;6.40;1.30;;;;;;;30.23;24.52;97077.00;2070187;28;20933;-65
2022/08/10 14:17:54;;;;;;;9.37;1.70;;;;;;;31.11;23.38;97061.09;2070362;28;20434;-65
2022/08/10 14:19:00;;;;;;;7.63;1.30;;;;;;;31.63;23.27;97064.59;2069403;28;20818;-65
2022/08/10 14:20:07;;;;;;;10.03;1.60;;;;;;;32.61;22.42;97066.66;2066648;28;20427;-65
2022/08/10 14:21:15;;;;;;;16.07;1.60;;;;;;;30.76;23.26;97079.69;2070023;28;20454;-65
2022/08/10 14:22:18;;;;;;;5.60;1.33;;;;;;;30.18;24.45;97076.69;2070361;28;20457;-64
2022/08/10 14:23:40;;;;;;;10.70;1.87;;;;;;;32.38;22.11;97072.34;2067904;28;20467;-64
2022/08/10 14:24:41;;;;;;;11.33;1.50;;;;;;;30.44;23.28;97071.72;2067017;28;20443;-65
2022/08/10 14:25:51;;;;;;;21.47;2.43;;;;;;;32.01;22.65;97064.31;2066107;28;20551;-65
2022/08/10 14:27:01;;;;;;;26.23;11.03;;;;;;;33.20;21.56;97059.91;2081992;28;20442;-64
2022/08/10 14:28:04;;;;;;;7.77;2.13;;;;;;;33.50;20.72;97078.53;2084462;28;20804;-65
2022/08/10 14:29:09;;;;;;;3.63;1.43;;;;;;;32.12;21.67;97068.34;2086432;28;20422;-64
2022/08/10 14:30:20;;;;;;;6.70;1.20;;;;;;;31.89;21.23;97063.16;2085585;28;20432;-65
2022/08/10 14:31:34;;;;;;;7.60;1.23;;;;;;;30.29;23.34;97069.00;2083761;28;20513;-65
2022/08/10 14:32:45;;;;;;;4.50;1.07;;;;;;;29.92;24.18;97059.09;2085203;28;20425;-65
2022/08/10 14:33:52;;;;;;;2.13;1.27;;;;;;;31.02;22.82;97063.03;2084428;28;20430;-64
2022/08/10 14:34:56;;;;;;;2.70;1.30;;;;;;;31.71;22.68;97059.06;2084508;28;20441;-64
2022/08/10 14:36:29;;;;;;;2.90;1.40;;;;;;;30.77;22.68;97067.88;2082486;28;20493;-64
2022/08/10 14:37:59;;;;;;;4.75;1.13;;;;;;;29.46;24.06;97060.75;2086217;28;20422;-65
2022/08/10 14:39:01;;;;;;;3.30;1.20;;;;;;;30.07;24.26;97062.66;2082915;28;20575;-64
2022/08/10 14:40:07;;;;;;;11.52;1.50;;;;;;;30.93;23.40;97064.13;2083718;28;20433;-64
2022/08/10 14:41:29;;;;;;;3.10;1.53;;;;;;;29.64;23.94;97054.25;2082640;28;20233;-64
2022/08/10 14:43:05;;;;;;;8.13;1.10;;;;;;;29.53;24.54;97060.03;2085929;28;20982;-64
2022/08/10 14:44:10;;;;;;;4.37;1.20;;;;;;;30.18;23.54;97053.28;2086487;28;20196;-64
2022/08/10 14:45:22;;;;;;;6.63;1.40;;;;;;;31.05;23.16;97048.34;2086252;28;20426;-64
2022/08/10 14:46:26;;;;;;;7.60;1.37;;;;;;;30.44;22.96;97058.25;2085739;28;20224;-65
2022/08/10 14:47:30;;;;;;;4.65;1.50;;;;;;;29.24;24.46;97057.00;2085390;28;20441;-65
2022/08/10 14:48:53;;;;;;;3.78;1.30;;;;;;;30.37;23.55;97051.97;2084605;28;20220;-64
2022/08/10 14:49:57;;;;;;;3.58;1.00;;;;;;;31.57;22.69;97046.44;2083263;28;20211;-64
2022/08/10 14:51:01;;;;;;;2.67;1.30;;;;;;;31.41;21.76;97058.31;2084058;28;20204;-64
2022/08/10 14:52:04;;;;;;;3.10;1.10;;;;;;;29.64;23.14;97054.25;2084243;28;20438;-64
2022/08/10 14:53:12;;;;;;;6.65;1.30;;;;;;;29.40;23.66;97042.63;2084199;28;20426;-65
2022/08/10 14:54:16;;;;;;;5.03;1.63;;;;;;;29.91;23.93;97054.72;2083214;28;20188;-64
2022/08/10 14:55:19;;;;;;;4.00;1.47;;;;;;;30.39;23.48;97055.28;2083244;28;20204;-65
2022/08/10 14:56:26;;;;;;;4.22;1.10;;;;;;;29.45;23.85;97031.34;2084124;28;20461;-65
2022/08/10 14:57:28;;;;;;;3.28;1.02;;;;;;;29.70;23.73;97045.47;2084461;28;20199;-64
2022/08/10 14:58:56;;;;;;;1.97;0.97;;;;;;;30.22;23.29;97038.47;2084957;28;20211;-64
2022/08/10 15:00:09;;;;;;;3.50;1.23;;;;;;;30.75;22.51;97037.56;2083178;28;20430;-64
2022/08/10 15:01:31;;;;;;;3.53;1.30;;;;;;;30.51;23.44;97036.81;2082114;28;20801;-64
2022/08/10 15:02:55;;;;;;;5.83;1.43;;;;;;;31.54;22.40;97041.41;2081527;28;20478;-64
2022/08/10 15:04:01;;;;;;;3.50;1.23;;;;;;;30.73;23.26;97029.69;2083956;28;20492;-64
2022/08/10 15:05:05;;;;;;;4.13;1.40;;;;;;;31.15;22.93;97042.66;2084690;28;20433;-65
2022/08/10 15:06:11;;;;;;;8.47;1.27;;;;;;;32.30;21.94;97038.16;2085054;28;20683;-64
2022/08/10 15:07:28;;;;;;;7.40;1.33;;;;;;;32.76;21.16;97042.25;2085701;28;20507;-64
2022/08/10 15:08:30;;;;;;;2.77;1.17;;;;;;;30.86;22.97;97039.78;2083853;28;20422;-65
2022/08/10 15:09:42;;;;;;;5.90;1.20;;;;;;;31.92;22.23;97022.28;2084090;28;20429;-64
2022/08/10 15:11:03;;;;;;;2.10;1.17;;;;;;;33.26;20.83;97011.44;2084440;28;20436;-65
2022/08/10 15:12:06;;;;;;;6.40;1.40;;;;;;;34.23;20.44;97039.03;2084574;28;20939;-64
2022/08/10 15:13:18;;;;;;;5.37;1.17;;;;;;;34.67;19.79;97040.25;2084296;28;20514;-65
2022/08/10 15:14:39;;;;;;;5.33;1.20;;;;;;;35.22;19.75;97030.06;2080744;28;20897;-65
2022/08/10 15:15:44;;;;;;;3.10;1.37;;;;;;;35.31;19.13;97035.03;2079481;28;20431;-65
2022/08/10 15:17:08;;;;;;;3.20;1.30;;;;;;;32.54;21.24;97030.63;2077953;28;20454;-65
2022/08/10 15:18:10;;;;;;;2.70;1.17;;;;;;;33.77;20.45;97042.56;2078862;28;20917;-65
2022/08/10 15:19:16;;;;;;;4.23;1.10;;;;;;;32.56;21.29;97029.41;2078830;28;20915;-65
2022/08/10 15:20:39;;;;;;;11.53;1.33;;;;;;;31.85;22.26;97026.81;2078746;28;20921;-65
2022/08/10 15:21:41;;;;;;;2.50;1.10;;;;;;;31.50;22.23;97029.34;2079535;28;20462;-65
2022/08/10 15:22:50;;;;;;;3.30;1.53;;;;;;;31.42;22.44;97027.59;2080614;28;20454;-64
2022/08/10 15:23:55;;;;;;;2.70;1.00;;;;;;;31.82;21.71;97032.56;2074851;28;20830;-65
2022/08/10 15:25:12;;;;;;;1.30;1.00;;;;;;;32.99;20.90;97032.97;2079182;28;20941;-65
2022/08/10 15:26:25;;;;;;;3.97;1.00;;;;;;;33.25;20.59;97021.41;2075480;28;20467;-65
2022/08/10 15:27:31;;;;;;;6.30;1.43;;;;;;;31.19;22.27;97025.91;2075767;28;20449;-65
2022/08/10 15:29:05;;;;;;;1.90;1.10;;;;;;;32.60;21.64;97035.25;2075664;28;20431;-65
2022/08/10 15:30:30;;;;;;;4.10;1.10;;;;;;;32.59;21.58;97033.56;2079127;28;20543;-65
2022/08/10 15:37:10;;;;;;;1.90;1.00;;;;;;;33.17;20.99;97035.94;2078129;28;20485;-64
2022/08/10 15:37:25;;;;;;;2.33;1.50;;;;;;;30.35;23.10;97018.97;2077251;28;20454;-63
2022/08/10 15:38:43;;;;;;;4.40;1.20;;;;;;;30.69;22.99;97024.84;2075704;28;20473;-64
2022/08/10 15:40:06;;;;;;;2.70;1.13;;;;;;;32.19;22.37;97034.16;2076988;28;20434;-64
2022/08/10 15:41:52;;;;;;;4.27;1.30;;;;;;;32.17;22.04;97024.56;2076450;28;20990;-64
2022/08/10 15:43:18;;;;;;;4.10;1.30;;;;;;;32.20;21.63;97014.22;2078373;28;20796;-64
2022/08/10 15:51:17;;;;;;;4.30;1.20;;;;;;;33.25;21.24;97018.69;2077611;28;20422;-64
2022/08/10 15:52:26;;;;;;;8.20;1.23;;;;;;;33.36;20.79;97018.13;2077534;28;20424;-64
2022/08/10 15:53:52;;;;;;;2.80;1.13;;;;;;;33.54;21.04;97017.53;2079441;28;20419;-64
2022/08/10 15:55:12;;;;;;;3.33;1.17;;;;;;;33.61;20.70;97014.88;2079477;28;20947;-64
2022/08/10 15:56:43;;;;;;;1.73;1.07;;;;;;;33.27;20.66;97010.38;2077896;28;20450;-64
2022/08/10 15:57:55;;;;;;;4.97;1.00;;;;;;;33.39;20.98;97011.47;2078730;28;20905;-64
2022/08/10 15:59:15;;;;;;;7.43;1.27;;;;;;;33.53;20.94;97012.34;2078514;28;20434;-64
2022/08/10 16:00:18;;;;;;;5.30;1.27;;;;;;;33.60;20.64;97020.47;2068338;28;20436;-64
2022/08/10 16:01:33;;;;;;;2.90;1.20;;;;;;;33.48;20.31;97020.25;2070249;28;20467;-64
2022/08/10 16:03:04;;;;;;;1.70;1.07;;;;;;;32.92;20.34;97005.91;2075827;28;20449;-64
2022/08/10 16:04:16;;;;;;;2.70;1.17;;;;;;;32.57;21.16;97005.94;2078067;28;21195;-64
2022/08/10 16:05:26;;;;;;;2.70;1.10;;;;;;;32.24;21.08;96999.28;2079331;28;20426;-64
2022/08/10 16:06:56;;;;;;;5.10;1.27;;;;;;;33.01;21.20;97004.72;2079629;28;20466;-64
2022/08/10 16:08:06;;;;;;;5.53;1.00;;;;;;;33.32;20.93;97002.50;2080049;28;20430;-64
2022/08/10 16:09:13;;;;;;;3.93;0.90;;;;;;;32.71;21.15;96998.72;2080498;28;20426;-64
2022/08/10 16:10:47;;;;;;;3.00;1.10;;;;;;;33.13;21.04;97002.25;2079623;28;20465;-64
2022/08/10 16:12:02;;;;;;;19.93;13.70;;;;;;;32.99;21.04;96998.66;2078046;28;20885;-63
2022/08/10 16:13:09;;;;;;;11.20;9.40;;;;;;;32.94;21.28;97003.00;2080511;28;20434;-64
2022/08/10 16:14:34;;;;;;;4.77;3.80;;;;;;;33.19;21.02;96993.31;2078495;28;20443;-64
2022/08/10 16:15:38;;;;;;;16.13;11.50;;;;;;;33.36;20.79;97001.91;2080276;28;20447;-64